Historyczne dane pomiarowe

Dodano dane terminowe – wersja testowa.

Dane z okresu 1951-2019

Wersja bazy: 1.34 [2019-03-16, lista zmian], aktualizacja planowana na 2019-04-15

Dane meteo z obszaru Polski uzyskane na podstawie danych udostępnionych przez Instytut Meteorologii i Gospodarki Wodnej – Państwowy Instytut Badawczy.

 

Wybierz Datę:    

       

TemperaturaWilgotnośćWiatrCiśnienieOpadyŚniegCzas trwania zjawisk
 Stacja t tx tn tng RH VA  wxwx mslp ppp RRR   cm mm wxwxwxwxwxwxwx
2011-08-13 18.1 21.3 14.4 13.9-- 7.0 1.0---- 7.7------------
2011-08-14 19.5 26.1 11.2 10.8-- 5.7 2.3---- 0.0------------
2011-08-15 18.9 24.5 15.8 15.9-- 4.3 1.3---- 0.9------------
2011-08-16 16.7 23.9 9.6 8.3-- 5.0 1.0---- 0.7------------
2011-08-17 17.3 24.4 10.5 10.2-- 5.3 0.7---- 0.0------------
2011-08-18 20.0 28.9 10.6 9.3-- 3.7 1.3---- 0.0------------
2011-08-19 21.2 27.4 15.5 13.3-- 4.7 4.3---- 7.2------------
2011-08-20 17.1 23.9 10.6 8.8-- 1.7 4.0---- 0.0------------
2011-08-21 18.4 26.9 8.5 7.8-- 3.7 2.3---- 0.0------------
2011-08-22 22.5 30.3 15.0 13.3-- 4.0 3.0---- 0.0------------
2011-08-23 19.0 26.9 10.3 9.3-- 3.3 1.7---- 0.0------------
2011-08-24 21.9 28.4 16.0 15.4-- 4.0 3.0---- 6.2------------
2011-08-25 21.0 27.3 12.0 18.6-- 4.0 1.3---- 0.0------------
2011-08-26 24.7 31.5 15.5 14.5-- 5.3 2.7---- 0.0------------
2011-08-27 19.8 27.7 13.4 13.9-- 5.0 3.0---- 5.5------------
2011-08-28 15.8 22.3 9.4 9.6-- 4.3 3.3---- 0.0------------
2011-08-29 15.9 21.8 9.4 7.6-- 4.7 3.3---- 0.0------------
2011-08-30 13.9 19.4 9.2 7.0-- 5.3 3.0---- 0.0------------
2011-08-31 12.8 20.4 6.4 4.2-- 5.0 1.7---- 0.0------------
2011-09-01 13.1 22.3 4.6 3.3-- 5.3 1.3---- 0.0------------
2011-09-02 13.9 22.0 6.6 5.7-- 4.0 1.0---- 0.0------------
2011-09-03 16.8 27.4 6.8 5.3-- 2.3 1.7---- 0.0------------
2011-09-04 20.3 29.3 12.0 9.8-- 3.3 2.3---- 0.0------------
2011-09-05 19.2 25.3 15.5 13.6-- 6.7 2.7---- 14.2------------
2011-09-06 16.1 22.4 11.5 10.8-- 5.0 3.7---- 0.0------------
2011-09-07 16.4 21.3 14.4 12.2-- 4.7 4.3---- 2.2------------
2011-09-08 13.2 16.8 11.0 10.0-- 8.0 6.0---- 0.0------------
2011-09-09 13.6 17.2 9.6 8.8-- 6.7 2.7---- 0.0------------
2011-09-10 18.4 25.9 12.4 13.9-- 5.3 0.3---- 0.0------------
2011-09-11 20.7 31.3 12.5 11.3-- 3.0 1.7---- 0.0------------
228.0 ms

 

Źródłem pochodzenia danych jest Instytut Meteorologii i Gospodarki Wodnej – Państwowy Instytut Badawczy. Dane Instytutu Meteorologii i Gospodarki Wodnej – Państwowego Instytutu Badawczego zostały przetworzone.

Dane źródłowe można odnaleźć na stronie https://dane.imgw.pl